createdAt,value
2018-12-22T00:01:47.151Z,101441.14
2018-12-22T00:04:13.262Z,101443.34
2018-12-22T00:06:39.387Z,101438.47
2018-12-22T00:09:05.490Z,101437.18
2018-12-22T00:11:31.586Z,101432.84
2018-12-22T00:13:57.710Z,101426.39
2018-12-22T00:16:23.823Z,101434.13
2018-12-22T00:18:49.947Z,101435.89
2018-12-22T00:21:16.042Z,101431.55
2018-12-22T00:23:42.151Z,101431.52
2018-12-22T00:26:08.262Z,101428.47
2018-12-22T00:28:34.388Z,101428.06
2018-12-22T00:31:00.486Z,101427.66
2018-12-22T00:33:26.602Z,101424.63
2018-12-22T00:35:52.715Z,101409.48
2018-12-22T00:38:18.819Z,101408.16
2018-12-22T00:40:44.926Z,101411.55
2018-12-22T00:43:11.035Z,101408.94
2018-12-22T00:45:37.131Z,101403.72
2018-12-22T00:48:03.268Z,101408.88
2018-12-22T00:50:29.371Z,101408.84
2018-12-22T00:52:55.476Z,101401.77
2018-12-22T00:55:21.583Z,101401.27
2018-12-22T00:57:47.692Z,101400.86
2018-12-22T01:00:13.885Z,101399.00
2018-12-22T01:02:40.043Z,101400.26
2018-12-22T01:05:06.171Z,101396.70
2018-12-22T01:07:32.268Z,101398.33
2018-12-22T01:09:58.403Z,101393.08
2018-12-22T01:12:24.514Z,101392.98
2018-12-22T01:14:50.635Z,101390.88
2018-12-22T01:17:16.824Z,101387.26
2018-12-22T01:19:42.927Z,101393.27
2018-12-22T01:22:09.052Z,101393.16
2018-12-22T01:24:35.211Z,101390.59
2018-12-22T01:27:01.323Z,101394.55
2018-12-22T01:29:27.451Z,101391.98
2018-12-22T01:31:53.558Z,101393.20
2018-12-22T01:34:19.674Z,101390.14
2018-12-22T01:36:45.767Z,101390.63
2018-12-22T01:39:11.863Z,101382.08
2018-12-22T01:41:37.963Z,101385.87
2018-12-22T01:44:05.023Z,101380.78
2018-12-22T01:46:31.140Z,101374.66
2018-12-22T01:48:57.254Z,101367.70
2018-12-22T01:51:23.359Z,101365.23
2018-12-22T01:53:49.463Z,101362.18
2018-12-22T01:56:15.550Z,101371.61
2018-12-22T01:58:47.835Z,101364.69
2018-12-22T02:01:09.798Z,101369.03
2018-12-22T02:03:35.902Z,101363.84
2018-12-22T02:06:02.011Z,101356.62
2018-12-22T02:08:28.113Z,101354.92
2018-12-22T02:10:54.227Z,101354.45
2018-12-22T02:13:20.343Z,101349.30
2018-12-22T02:15:46.456Z,101348.01
2018-12-22T02:18:12.563Z,101345.50
2018-12-22T02:20:38.674Z,101344.55
2018-12-22T02:23:04.779Z,101344.14
2018-12-22T02:25:30.899Z,101346.78
2018-12-22T02:27:57.146Z,101342.06
2018-12-22T02:30:23.252Z,101334.81
2018-12-22T02:32:49.351Z,101337.39
2018-12-22T02:35:15.458Z,101334.34
2018-12-22T02:37:41.562Z,101321.45
2018-12-22T02:40:08.020Z,101336.91
2018-12-22T02:42:34.123Z,101327.39
2018-12-22T02:45:00.240Z,101322.62
2018-12-22T02:47:26.350Z,101316.59
2018-12-22T02:49:52.439Z,101317.50
2018-12-22T02:52:18.548Z,101317.15
2018-12-22T02:54:44.650Z,101311.94
2018-12-22T02:57:10.756Z,101310.71
2018-12-22T02:59:36.862Z,101314.10
2018-12-22T03:02:03.107Z,101310.27
2018-12-22T03:04:29.214Z,101306.38
2018-12-22T03:06:55.346Z,101304.27
2018-12-22T03:09:21.454Z,101309.86
2018-12-22T03:11:47.578Z,101304.27
2018-12-22T03:14:13.702Z,101310.27
2018-12-22T03:16:39.827Z,101305.96
2018-12-22T03:19:05.931Z,101299.55
2018-12-22T03:21:32.059Z,101300.43
2018-12-22T03:23:58.166Z,101302.19
2018-12-22T03:26:24.301Z,101295.38
2018-12-22T03:28:50.418Z,101294.97
2018-12-22T03:31:16.524Z,101291.48
2018-12-22T03:33:42.623Z,101287.23
2018-12-22T03:36:08.744Z,101290.63
2018-12-22T03:38:34.858Z,101286.36
2018-12-22T03:41:00.956Z,101288.05
2018-12-22T03:43:27.068Z,101286.77
2018-12-22T03:45:53.174Z,101280.41
2018-12-22T03:48:19.279Z,101279.22
2018-12-22T03:50:45.394Z,101274.06
2018-12-22T03:53:11.515Z,101280.06
2018-12-22T03:55:37.613Z,101276.64
2018-12-22T03:58:03.723Z,101273.13
2018-12-22T04:00:29.823Z,101269.66
2018-12-22T04:02:55.950Z,101273.53
2018-12-22T04:05:22.078Z,101276.92
2018-12-22T04:07:48.198Z,101277.48
2018-12-22T04:10:14.307Z,101269.28
2018-12-22T04:12:40.412Z,101270.58
2018-12-22T04:15:06.533Z,101274.06
2018-12-22T04:17:32.642Z,101271.86
2018-12-22T04:19:58.747Z,101271.05
2018-12-22T04:22:24.867Z,101257.69
2018-12-22T04:24:52.935Z,101261.23
2018-12-22T04:27:19.038Z,101259.07
2018-12-22T04:29:45.146Z,101267.74
2018-12-22T04:32:11.248Z,101261.73
2018-12-22T04:34:37.366Z,101261.39
2018-12-22T04:37:03.476Z,101259.25
2018-12-22T04:39:29.579Z,101255.91
2018-12-22T04:41:55.697Z,101258.49
2018-12-22T04:44:21.826Z,101248.18
2018-12-22T04:46:47.935Z,101255.94
2018-12-22T04:49:14.056Z,101248.18
2018-12-22T04:51:40.167Z,101245.55
2018-12-22T04:54:06.279Z,101243.05
2018-12-22T04:56:32.396Z,101239.19
2018-12-22T04:58:58.516Z,101240.95
2018-12-22T05:01:24.617Z,101238.84
2018-12-22T05:03:50.754Z,101240.56
2018-12-22T05:06:16.860Z,101244.84
2018-12-22T05:08:42.964Z,101243.20
2018-12-22T05:11:09.055Z,101237.98
2018-12-22T05:13:35.179Z,101228.55
2018-12-22T05:16:01.288Z,101236.76
2018-12-22T05:18:27.410Z,101226.86
2018-12-22T05:20:53.530Z,101229.02
2018-12-22T05:23:19.655Z,101221.70
2018-12-22T05:25:45.781Z,101220.44
2018-12-22T05:28:11.878Z,101221.73
2018-12-22T05:30:37.995Z,101225.66
2018-12-22T05:33:04.106Z,101224.37
2018-12-22T05:35:30.199Z,101229.14
2018-12-22T05:37:56.294Z,101228.31
2018-12-22T05:40:22.406Z,101228.38
2018-12-22T05:42:48.503Z,101234.84
2018-12-22T05:45:14.618Z,101236.52
2018-12-22T05:47:40.718Z,101230.42
2018-12-22T05:50:06.970Z,101233.01
2018-12-22T05:52:33.118Z,101231.72
2018-12-22T05:54:59.218Z,101232.66
2018-12-22T05:57:25.327Z,101231.78
2018-12-22T05:59:51.430Z,101234.84
2018-12-22T06:02:17.533Z,101228.46
2018-12-22T06:04:43.650Z,101227.27
2018-12-22T06:07:09.750Z,101228.58
2018-12-22T06:09:35.848Z,101223.07
2018-12-22T06:12:01.970Z,101228.66
2018-12-22T06:14:28.062Z,101222.11
2018-12-22T06:16:54.227Z,101228.08
2018-12-22T06:19:20.334Z,101230.72
2018-12-22T06:21:46.478Z,101221.70
2018-12-22T06:24:12.579Z,101219.55
2018-12-22T06:26:38.674Z,101221.72
2018-12-22T06:29:04.833Z,101218.23
2018-12-22T06:31:30.946Z,101222.59
2018-12-22T06:33:57.058Z,101229.54
2018-12-22T06:36:23.176Z,101222.22
2018-12-22T06:38:49.267Z,101224.91
2018-12-22T06:41:15.381Z,101223.64
2018-12-22T06:43:41.486Z,101223.79
2018-12-22T06:46:07.599Z,101214.05
2018-12-22T06:48:33.697Z,101215.81
2018-12-22T06:50:59.821Z,101215.02
2018-12-22T06:53:25.947Z,101212.91
2018-12-22T06:55:52.058Z,101215.91
2018-12-22T06:58:18.174Z,101213.33
2018-12-22T07:00:44.278Z,101210.32
2018-12-22T07:03:10.387Z,101207.27
2018-12-22T07:05:36.506Z,101205.98
2018-12-22T07:08:02.622Z,101209.38
2018-12-22T07:10:28.727Z,101209.86
2018-12-22T07:12:54.876Z,101206.89
2018-12-22T07:15:20.979Z,101211.22
2018-12-22T07:17:47.135Z,101203.88
2018-12-22T07:20:13.234Z,101208.73
2018-12-22T07:22:39.346Z,101210.89
2018-12-22T07:25:05.486Z,101209.61
2018-12-22T07:27:31.619Z,101205.33
2018-12-22T07:29:57.734Z,101204.50
2018-12-22T07:32:23.843Z,101209.19
2018-12-22T07:34:49.939Z,101215.25
2018-12-22T07:37:16.055Z,101212.67
2018-12-22T07:39:42.172Z,101207.49
2018-12-22T07:42:08.302Z,101213.89
2018-12-22T07:44:34.414Z,101213.53
2018-12-22T07:47:00.550Z,101213.06
2018-12-22T07:49:26.643Z,101206.23
2018-12-22T07:51:52.766Z,101217.02
2018-12-22T07:54:18.877Z,101213.94
2018-12-22T07:56:44.974Z,101212.57
2018-12-22T07:59:11.080Z,101210.89
2018-12-22T08:01:37.224Z,101212.67
2018-12-22T08:04:03.358Z,101200.66
2018-12-22T08:06:29.458Z,101200.72
2018-12-22T08:08:55.580Z,101200.63
2018-12-22T08:11:21.687Z,101198.73
2018-12-22T08:13:47.819Z,101201.38
2018-12-22T08:16:13.939Z,101204.72
2018-12-22T08:18:40.166Z,101198.19
2018-12-22T08:21:06.258Z,101203.89
2018-12-22T08:23:32.371Z,101203.89
2018-12-22T08:25:58.470Z,101202.58
2018-12-22T08:28:24.588Z,101199.53
2018-12-22T08:30:50.698Z,101203.42
2018-12-22T08:33:16.823Z,101206.39
2018-12-22T08:35:42.927Z,101202.52
2018-12-22T08:38:09.033Z,101204.61
2018-12-22T08:40:35.158Z,101205.02
2018-12-22T08:43:01.263Z,101205.41
2018-12-22T08:45:27.395Z,101202.36
2018-12-22T08:47:53.494Z,101203.67
2018-12-22T08:50:19.607Z,101195.09
2018-12-22T08:52:45.734Z,101201.56
2018-12-22T08:55:11.863Z,101194.22
2018-12-22T08:57:38.013Z,101196.00
2018-12-22T09:00:07.706Z,101197.15
2018-12-22T09:02:33.836Z,101197.15
2018-12-22T09:04:59.951Z,101200.27
2018-12-22T09:07:26.050Z,101204.20
2018-12-22T09:09:52.296Z,101200.77
2018-12-22T09:12:18.520Z,101199.92
2018-12-22T09:14:44.630Z,101197.28
2018-12-22T09:17:10.727Z,101198.58
2018-12-22T09:19:36.850Z,101198.63
2018-12-22T09:22:02.972Z,101196.95
2018-12-22T09:24:29.102Z,101191.74
2018-12-22T09:26:55.199Z,101194.38
2018-12-22T09:29:21.314Z,101193.98
2018-12-22T09:31:47.447Z,101196.90
2018-12-22T09:34:13.819Z,101201.21
2018-12-22T09:36:40.054Z,101204.23
2018-12-22T09:39:06.906Z,101201.21
2018-12-22T09:41:33.015Z,101187.84
2018-12-22T09:43:59.144Z,101195.12
2018-12-22T09:46:25.275Z,101195.53
2018-12-22T09:48:51.736Z,101195.17
2018-12-22T09:51:17.855Z,101193.47
2018-12-22T09:53:43.970Z,101194.70
2018-12-22T09:56:10.075Z,101196.37
2018-12-22T09:58:36.170Z,101195.94
2018-12-22T10:01:09.246Z,101195.17
2018-12-22T10:03:30.439Z,101193.01
2018-12-22T10:05:56.546Z,101190.89
2018-12-22T10:08:22.639Z,101181.87
2018-12-22T10:10:48.894Z,101187.03
2018-12-22T10:13:15.006Z,101179.29
2018-12-22T10:15:41.131Z,101179.72
2018-12-22T10:18:07.251Z,101190.04
2018-12-22T10:20:33.354Z,101181.50
2018-12-22T10:22:59.463Z,101181.09
2018-12-22T10:25:25.598Z,101188.48
2018-12-22T10:27:51.724Z,101185.43
2018-12-22T10:30:17.826Z,101178.91
2018-12-22T10:32:43.984Z,101187.84
2018-12-22T10:35:14.152Z,101188.31
2018-12-22T10:37:40.251Z,101175.22
2018-12-22T10:40:08.031Z,101173.85
2018-12-22T10:42:34.196Z,101179.56
2018-12-22T10:45:00.356Z,101178.73
2018-12-22T10:47:26.463Z,101169.22
2018-12-22T10:49:52.588Z,101171.75
2018-12-22T10:52:18.695Z,101172.21
2018-12-22T10:54:44.920Z,101177.31
2018-12-22T10:57:11.054Z,101170.52
2018-12-22T10:59:37.159Z,101170.06
2018-12-22T11:02:03.313Z,101160.61
2018-12-22T11:04:29.408Z,101166.53
2018-12-22T11:06:55.518Z,101163.13
2018-12-22T11:09:21.623Z,101169.25
2018-12-22T11:11:47.751Z,101162.77
2018-12-22T11:14:13.982Z,101158.93
2018-12-22T11:16:40.095Z,101158.52
2018-12-22T11:19:06.231Z,101163.68
2018-12-22T11:21:32.334Z,101163.19
2018-12-22T11:23:58.442Z,101164.64
2018-12-22T11:26:24.546Z,101164.17
2018-12-22T11:28:50.663Z,101164.58
2018-12-22T11:31:17.597Z,101161.64
2018-12-22T11:33:43.704Z,101160.69
2018-12-22T11:36:09.802Z,101159.48
2018-12-22T11:38:35.914Z,101163.21
2018-12-22T11:41:02.022Z,101154.52
2018-12-22T11:43:28.143Z,101162.80
2018-12-22T11:45:54.242Z,101160.14
2018-12-22T11:48:21.504Z,101149.28
2018-12-22T11:50:47.611Z,101150.16
2018-12-22T11:53:13.746Z,101144.50
2018-12-22T11:55:39.884Z,101148.38
2018-12-22T11:58:06.006Z,101148.45
2018-12-22T12:00:32.110Z,101145.41
2018-12-22T12:02:58.223Z,101146.70
2018-12-22T12:05:24.318Z,101146.62
2018-12-22T12:07:50.426Z,101141.84
2018-12-22T12:10:16.573Z,101145.72
2018-12-22T12:12:42.675Z,101147.83
2018-12-22T12:15:14.179Z,101142.20
2018-12-22T12:17:47.238Z,101143.55
2018-12-22T12:20:13.354Z,101142.20
2018-12-22T12:22:39.459Z,101140.15
2018-12-22T12:25:06.024Z,101142.28
2018-12-22T12:27:32.127Z,101132.44
2018-12-22T12:29:58.242Z,101129.39
2018-12-22T12:32:24.342Z,101135.48
2018-12-22T12:34:50.446Z,101127.28
2018-12-22T12:37:16.543Z,101120.83
2018-12-22T12:39:42.651Z,101131.14
2018-12-22T12:42:08.769Z,101120.36
2018-12-22T12:44:35.439Z,101120.42
2018-12-22T12:47:01.550Z,101126.05
2018-12-22T12:49:27.683Z,101120.89
2018-12-22T12:51:53.779Z,101120.89
2018-12-22T12:54:20.034Z,101123.41
2018-12-22T12:56:46.151Z,101125.16
2018-12-22T12:59:12.254Z,101125.63
2018-12-22T13:01:38.491Z,101130.33
2018-12-22T13:04:04.602Z,101129.03
2018-12-22T13:06:31.965Z,101134.60
2018-12-22T13:08:58.256Z,101128.63
2018-12-22T13:11:24.375Z,101131.23
2018-12-22T13:13:50.475Z,101130.02
2018-12-22T13:16:16.590Z,101133.86
2018-12-22T13:18:42.689Z,101130.41
2018-12-22T13:21:08.942Z,101130.41
2018-12-22T13:23:35.042Z,101135.17
2018-12-22T13:26:01.175Z,101137.83
2018-12-22T13:28:27.315Z,101144.20
2018-12-22T13:30:53.436Z,101145.38
2018-12-22T13:33:19.620Z,101141.95
2018-12-22T13:35:45.807Z,101147.50
2018-12-22T13:38:11.926Z,101145.33
2018-12-22T13:40:38.036Z,101147.09
2018-12-22T13:43:04.168Z,101144.97
2018-12-22T13:45:30.279Z,101147.98
2018-12-22T13:47:56.626Z,101139.81
2018-12-22T13:50:23.163Z,101138.87
2018-12-22T13:52:49.374Z,101139.76
2018-12-22T13:55:15.483Z,101141.84
2018-12-22T13:57:42.673Z,101133.59
2018-12-22T14:00:17.511Z,101139.63
2018-12-22T14:02:43.633Z,101146.07
2018-12-22T14:05:13.680Z,101139.59
2018-12-22T14:07:39.814Z,101140.01
2018-12-22T14:10:09.970Z,101144.75
2018-12-22T14:12:36.139Z,101140.39
2018-12-22T14:15:04.287Z,101139.52
2018-12-22T14:17:30.418Z,101148.95
2018-12-22T14:19:56.514Z,101151.53
2018-12-22T14:22:22.630Z,101142.50
2018-12-22T14:24:48.743Z,101144.62
2018-12-22T14:27:14.843Z,101142.92
2018-12-22T14:29:40.966Z,101149.83
2018-12-22T14:32:07.063Z,101141.69
2018-12-22T14:34:33.619Z,101144.75
2018-12-22T14:36:59.737Z,101145.63
2018-12-22T14:39:25.855Z,101144.78
2018-12-22T14:41:51.978Z,101138.39
2018-12-22T14:44:18.095Z,101142.20
2018-12-22T14:46:44.199Z,101142.67
2018-12-22T14:49:10.311Z,101140.56
2018-12-22T14:51:36.407Z,101140.56
2018-12-22T14:54:02.563Z,101139.34
2018-12-22T14:56:33.615Z,101135.56
2018-12-22T14:58:59.729Z,101136.11
2018-12-22T15:01:25.830Z,101135.25
2018-12-22T15:03:51.939Z,101134.52
2018-12-22T15:06:18.056Z,101134.59
2018-12-22T15:08:44.155Z,101105.75
2018-12-22T15:11:10.274Z,101139.83
2018-12-22T15:13:36.382Z,101142.88
2018-12-22T15:16:02.627Z,101147.64
2018-12-22T15:18:28.747Z,101143.34
2018-12-22T15:20:54.882Z,101144.98
2018-12-22T15:23:20.978Z,101145.91
2018-12-22T15:25:47.097Z,101139.95
2018-12-22T15:28:13.210Z,101134.66
2018-12-22T15:30:39.350Z,101142.05
2018-12-22T15:33:05.446Z,101139.55
2018-12-22T15:35:31.691Z,101140.02
2018-12-22T15:37:58.634Z,101140.02
2018-12-22T15:40:24.880Z,101112.59
2018-12-22T15:42:50.983Z,101132.06
2018-12-22T15:45:17.414Z,101135.05
2018-12-22T15:47:44.726Z,101129.41
2018-12-22T15:50:18.174Z,101133.22
2018-12-22T15:52:44.274Z,101119.42
2018-12-22T15:55:10.442Z,101126.41
2018-12-22T15:57:36.547Z,101122.08
2018-12-22T16:00:05.897Z,101128.14
2018-12-22T16:02:31.998Z,101126.92
2018-12-22T16:04:58.114Z,101124.41
2018-12-22T16:07:24.239Z,101128.27
2018-12-22T16:09:50.347Z,101126.98
2018-12-22T16:12:16.468Z,101131.27
2018-12-22T16:14:42.574Z,101124.42
2018-12-22T16:17:08.704Z,101130.88
2018-12-22T16:19:34.790Z,101127.39
2018-12-22T16:22:00.925Z,101124.41
2018-12-22T16:24:27.034Z,101124.53
2018-12-22T16:26:53.159Z,101124.48
2018-12-22T16:29:19.702Z,101127.00
2018-12-22T16:31:45.819Z,101126.26
2018-12-22T16:34:11.922Z,101127.96
2018-12-22T16:36:38.029Z,101131.42
2018-12-22T16:39:05.499Z,101131.80
2018-12-22T16:41:31.639Z,101129.69
2018-12-22T16:43:57.780Z,101132.70
2018-12-22T16:46:23.875Z,101133.56
2018-12-22T16:48:49.974Z,101139.21
2018-12-22T16:51:16.090Z,101131.50
2018-12-22T16:53:42.206Z,101140.11
2018-12-22T16:56:08.388Z,101138.82
2018-12-22T16:58:34.515Z,101134.95
2018-12-22T17:01:23.499Z,101132.37
2018-12-22T17:03:49.654Z,101134.08
2018-12-22T17:06:15.779Z,101134.08
2018-12-22T17:08:41.883Z,101127.63
2018-12-22T17:11:08.012Z,101131.06
2018-12-22T17:13:34.155Z,101128.91
2018-12-22T17:16:00.384Z,101123.34
2018-12-22T17:18:26.635Z,101135.03
2018-12-22T17:20:56.525Z,101136.73
2018-12-22T17:23:28.662Z,101133.72
2018-12-22T17:25:56.550Z,101128.09
2018-12-22T17:28:28.294Z,101130.26
2018-12-22T17:30:50.807Z,101128.55
2018-12-22T17:33:19.085Z,101130.26
2018-12-22T17:35:45.066Z,101125.05
2018-12-22T17:38:11.167Z,101123.73
2018-12-22T17:40:37.282Z,101122.45
2018-12-22T17:43:03.395Z,101125.02
2018-12-22T17:45:29.503Z,101129.30
2018-12-22T17:47:55.627Z,101125.91
2018-12-22T17:50:21.757Z,101124.56
2018-12-22T17:52:47.860Z,101123.68
2018-12-22T17:55:14.022Z,101121.56
2018-12-22T17:57:40.252Z,101129.77
2018-12-22T18:00:10.281Z,101135.36
2018-12-22T18:02:36.390Z,101128.55
2018-12-22T18:05:03.154Z,101125.91
2018-12-22T18:07:29.278Z,101124.61
2018-12-22T18:09:55.387Z,101127.19
2018-12-22T18:12:21.494Z,101125.84
2018-12-22T18:14:47.615Z,101125.02
2018-12-22T18:17:13.745Z,101127.55
2018-12-22T18:19:39.843Z,101132.70
2018-12-22T18:22:05.970Z,101126.26
2018-12-22T18:24:32.083Z,101131.01
2018-12-22T18:26:58.230Z,101132.78
2018-12-22T18:29:24.325Z,101138.36
2018-12-22T18:31:50.439Z,101134.95
2018-12-22T18:34:16.534Z,101143.16
2018-12-22T18:36:42.670Z,101137.12
2018-12-22T18:39:08.770Z,101142.28
2018-12-22T18:41:34.911Z,101137.12
2018-12-22T18:44:01.039Z,101134.54
2018-12-22T18:46:27.162Z,101136.30
2018-12-22T18:48:53.260Z,101138.87
2018-12-22T18:51:19.363Z,101135.01
2018-12-22T18:53:45.500Z,101142.41
2018-12-22T18:56:11.634Z,101138.09
2018-12-22T18:58:37.747Z,101137.73
2018-12-22T19:01:03.869Z,101136.94
2018-12-22T19:03:29.974Z,101142.48
2018-12-22T19:05:56.083Z,101135.70
2018-12-22T19:08:22.207Z,101139.50
2018-12-22T19:10:48.343Z,101138.64
2018-12-22T19:13:14.458Z,101134.36
2018-12-22T19:15:40.659Z,101131.29
2018-12-22T19:18:06.819Z,101140.81
2018-12-22T19:20:38.482Z,101138.62
2018-12-22T19:23:05.044Z,101136.45
2018-12-22T19:25:31.154Z,101142.08
2018-12-22T19:27:57.345Z,101131.29
2018-12-22T19:30:23.499Z,101138.20
2018-12-22T19:32:49.627Z,101141.70
2018-12-22T19:35:15.736Z,101141.30
2018-12-22T19:37:41.830Z,101139.18
2018-12-22T19:40:07.970Z,101147.34
2018-12-22T19:42:34.059Z,101142.17
2018-12-22T19:45:00.171Z,101148.16
2018-12-22T19:47:26.266Z,101141.69
2018-12-22T19:49:52.530Z,101143.00
2018-12-22T19:52:18.651Z,101145.55
2018-12-22T19:54:44.842Z,101142.98
2018-12-22T19:57:10.947Z,101143.88
2018-12-22T19:59:38.725Z,101143.05
2018-12-22T20:02:04.990Z,101140.42
2018-12-22T20:04:31.111Z,101135.39
2018-12-22T20:06:57.220Z,101132.86
2018-12-22T20:09:23.331Z,101134.90
2018-12-22T20:11:49.775Z,101133.61
2018-12-22T20:14:15.894Z,101138.72
2018-12-22T20:16:42.006Z,101138.23
2018-12-22T20:19:08.118Z,101134.43
2018-12-22T20:21:34.218Z,101133.97
2018-12-22T20:24:00.334Z,101133.62
2018-12-22T20:26:26.453Z,101140.47
2018-12-22T20:28:52.576Z,101141.70
2018-12-22T20:31:18.676Z,101136.53
2018-12-22T20:33:44.798Z,101140.00
2018-12-22T20:36:10.906Z,101141.30
2018-12-22T20:38:37.015Z,101148.70
2018-12-22T20:41:03.143Z,101149.50
2018-12-22T20:43:29.254Z,101124.69
2018-12-22T20:45:55.408Z,101144.28
2018-12-22T20:48:21.517Z,101142.64
2018-12-22T20:50:47.627Z,101140.95
2018-12-22T20:53:13.743Z,101136.67
2018-12-22T20:55:39.878Z,101136.19
2018-12-22T20:58:05.998Z,101137.48
2018-12-22T21:00:32.131Z,101140.55
2018-12-22T21:02:58.248Z,101140.94
2018-12-22T21:05:27.991Z,101143.46
2018-12-22T21:07:54.091Z,101137.33
2018-12-22T21:10:20.195Z,101141.22
2018-12-22T21:12:46.322Z,101139.11
2018-12-22T21:15:12.450Z,101140.88
2018-12-22T21:17:38.567Z,101133.55
2018-12-22T21:20:05.315Z,101138.36
2018-12-22T21:22:31.420Z,101141.37
2018-12-22T21:24:58.378Z,101143.52
2018-12-22T21:27:24.490Z,101140.53
2018-12-22T21:29:50.604Z,101136.27
2018-12-22T21:32:16.716Z,101137.50
2018-12-22T21:34:42.828Z,101117.91
2018-12-22T21:37:08.945Z,101147.47
2018-12-22T21:39:35.066Z,101144.88
2018-12-22T21:42:01.194Z,101139.25
2018-12-22T21:44:27.290Z,101138.36
2018-12-22T21:46:53.413Z,101141.37
2018-12-22T21:49:19.518Z,101135.31
2018-12-22T21:51:45.632Z,101136.59
2018-12-22T21:54:11.743Z,101132.27
2018-12-22T21:56:37.913Z,101137.42
2018-12-22T21:59:04.010Z,101127.03
2018-12-22T22:01:30.222Z,101133.48
2018-12-22T22:03:56.346Z,101126.28
2018-12-22T22:06:22.458Z,101127.63
2018-12-22T22:08:48.570Z,101123.29
2018-12-22T22:11:14.663Z,101124.98
2018-12-22T22:13:40.770Z,101124.94
2018-12-22T22:16:06.867Z,101127.52
2018-12-22T22:18:32.967Z,101128.80
2018-12-22T22:20:59.075Z,101128.78
2018-12-22T22:23:25.261Z,101128.31
2018-12-22T22:25:51.359Z,101130.90
2018-12-22T22:28:17.466Z,101125.79
2018-12-22T22:30:43.606Z,101124.52
2018-12-22T22:33:09.713Z,101130.62
2018-12-22T22:35:35.815Z,101128.91
2018-12-22T22:38:01.938Z,101121.19
2018-12-22T22:40:28.058Z,101127.10
2018-12-22T22:42:54.173Z,101122.80
2018-12-22T22:45:20.287Z,101121.05
2018-12-22T22:47:46.411Z,101116.78
2018-12-22T22:50:12.519Z,101122.46
2018-12-22T22:52:38.630Z,101124.52
2018-12-22T22:55:04.795Z,101122.89
2018-12-22T22:57:30.914Z,101124.19
2018-12-22T22:59:57.022Z,101126.00
2018-12-22T23:02:23.147Z,101119.95
2018-12-22T23:04:54.433Z,101114.33
2018-12-22T23:07:17.548Z,101113.84
2018-12-22T23:09:43.691Z,101114.27
2018-12-22T23:12:09.791Z,101117.25
2018-12-22T23:14:35.902Z,101116.84
2018-12-22T23:17:02.010Z,101112.97
2018-12-22T23:19:28.127Z,101114.27
2018-12-22T23:21:54.222Z,101112.09
2018-12-22T23:24:20.334Z,101112.97
2018-12-22T23:26:46.446Z,101112.09
2018-12-22T23:29:12.561Z,101113.45
2018-12-22T23:31:38.674Z,101113.09
2018-12-22T23:34:04.794Z,101111.21
2018-12-22T23:36:30.906Z,101112.14
2018-12-22T23:38:57.019Z,101116.02
2018-12-22T23:41:23.118Z,101114.67
2018-12-22T23:43:49.208Z,101124.19
2018-12-22T23:46:15.558Z,101120.66
2018-12-22T23:48:41.690Z,101118.15
2018-12-22T23:51:07.819Z,101118.20
2018-12-22T23:53:33.919Z,101115.69
2018-12-22T23:56:00.054Z,101117.81
2018-12-22T23:58:26.162Z,101119.95
